createdAt,value
2023-03-22T00:00:06.567Z,99.90
2023-03-22T00:02:33.634Z,99.90
2023-03-22T00:05:01.107Z,99.90
2023-03-22T00:07:28.540Z,99.90
2023-03-22T00:09:55.466Z,99.90
2023-03-22T00:12:22.416Z,99.90
2023-03-22T00:14:49.449Z,99.90
2023-03-22T00:17:16.304Z,99.90
2023-03-22T00:19:44.852Z,99.90
2023-03-22T00:22:11.789Z,99.90
2023-03-22T00:24:38.696Z,99.90
2023-03-22T00:27:05.564Z,99.90
2023-03-22T00:29:32.424Z,99.90
2023-03-22T00:31:59.377Z,99.90
2023-03-22T00:34:32.244Z,99.90
2023-03-22T00:36:59.773Z,99.90
2023-03-22T00:39:26.973Z,99.90
2023-03-22T00:41:54.030Z,99.90
2023-03-22T00:44:21.236Z,99.90
2023-03-22T00:46:48.086Z,99.90
2023-03-22T00:49:16.000Z,99.90
2023-03-22T00:51:42.938Z,99.90
2023-03-22T00:54:09.820Z,99.90
2023-03-22T00:56:38.109Z,99.90
2023-03-22T00:59:05.542Z,99.90
2023-03-22T01:01:32.920Z,99.90
2023-03-22T01:04:00.157Z,99.90
2023-03-22T01:06:27.046Z,99.90
2023-03-22T01:08:55.010Z,99.90
2023-03-22T01:11:21.898Z,99.90
2023-03-22T01:13:49.582Z,99.90
2023-03-22T01:16:17.993Z,99.90
2023-03-22T01:18:45.345Z,99.90
2023-03-22T01:21:13.023Z,99.90
2023-03-22T01:23:39.895Z,99.90
2023-03-22T01:26:07.133Z,99.90
2023-03-22T01:28:34.080Z,99.90
2023-03-22T01:31:03.905Z,99.90
2023-03-22T01:33:31.837Z,99.90
2023-03-22T01:35:58.799Z,99.90
2023-03-22T01:38:25.798Z,99.90
2023-03-22T01:40:52.681Z,99.90
2023-03-22T01:43:19.559Z,99.90
2023-03-22T01:45:53.125Z,99.90
2023-03-22T01:48:34.103Z,99.90
2023-03-22T01:51:21.155Z,99.90
2023-03-22T01:54:20.984Z,99.90
2023-03-22T01:56:50.200Z,99.90
2023-03-22T01:59:17.150Z,99.90
2023-03-22T02:01:46.812Z,99.90
2023-03-22T02:04:25.193Z,99.90
2023-03-22T02:06:55.510Z,99.90
2023-03-22T02:09:22.381Z,99.90
2023-03-22T02:12:18.205Z,99.90
2023-03-22T02:15:11.265Z,99.90
2023-03-22T02:18:17.190Z,99.90
2023-03-22T02:21:56.079Z,99.90
2023-03-22T02:25:31.459Z,99.90
2023-03-22T02:28:28.919Z,99.90
2023-03-22T02:32:01.137Z,99.90
2023-03-22T02:35:15.774Z,99.90
2023-03-22T02:38:24.654Z,99.90
2023-03-22T02:41:11.878Z,99.90
2023-03-22T02:44:22.094Z,99.90
2023-03-22T02:47:10.681Z,99.90
2023-03-22T02:50:02.308Z,99.90
2023-03-22T02:53:08.902Z,99.90
2023-03-22T02:55:50.970Z,99.90
2023-03-22T02:58:39.187Z,99.90
2023-03-22T03:01:18.044Z,99.90
2023-03-22T03:03:50.594Z,99.90
2023-03-22T03:06:25.627Z,99.90
2023-03-22T03:08:57.831Z,99.90
2023-03-22T03:11:25.125Z,99.90
2023-03-22T03:13:52.044Z,99.90
2023-03-22T03:16:27.425Z,99.90
2023-03-22T03:19:35.029Z,99.90
2023-03-22T03:22:47.035Z,99.90
2023-03-22T03:25:38.255Z,99.90
2023-03-22T03:28:22.826Z,99.90
2023-03-22T03:31:07.974Z,99.90
2023-03-22T03:33:52.042Z,99.90
2023-03-22T03:36:23.104Z,99.90
2023-03-22T03:38:55.378Z,99.90
2023-03-22T03:41:30.160Z,99.90
2023-03-22T03:43:59.576Z,99.90
2023-03-22T03:46:28.931Z,99.90
2023-03-22T03:48:58.937Z,99.90
2023-03-22T03:51:28.251Z,99.90
2023-03-22T03:53:55.197Z,99.90
2023-03-22T03:56:22.084Z,99.90
2023-03-22T03:58:48.941Z,99.90
2023-03-22T04:01:15.926Z,99.90
2023-03-22T04:03:42.783Z,99.90
2023-03-22T04:06:09.794Z,99.90
2023-03-22T04:08:36.647Z,99.90
2023-03-22T04:11:03.511Z,99.90
2023-03-22T04:13:30.422Z,99.90
2023-03-22T04:15:57.918Z,99.90
2023-03-22T04:18:24.812Z,99.90
2023-03-22T04:20:53.385Z,99.90
2023-03-22T04:23:22.481Z,99.90
2023-03-22T04:25:50.318Z,99.90
2023-03-22T04:28:19.634Z,99.90
2023-03-22T04:30:51.858Z,99.90
2023-03-22T04:33:22.672Z,99.90
2023-03-22T04:35:50.331Z,99.90
2023-03-22T04:38:18.145Z,99.90
2023-03-22T04:40:46.596Z,99.90
2023-03-22T04:43:15.559Z,99.90
2023-03-22T04:45:42.506Z,99.90
2023-03-22T04:48:10.515Z,99.90
2023-03-22T04:50:40.092Z,99.90
2023-03-22T04:53:08.109Z,99.90
2023-03-22T04:55:35.321Z,99.90
2023-03-22T04:58:02.516Z,99.90
2023-03-22T05:00:30.236Z,99.90
2023-03-22T05:02:58.355Z,99.90
2023-03-22T05:05:25.340Z,99.90
2023-03-22T05:07:52.331Z,99.90
2023-03-22T05:10:19.252Z,99.90
2023-03-22T05:12:46.108Z,99.90
2023-03-22T05:15:14.007Z,99.90
2023-03-22T05:17:41.039Z,99.90
2023-03-22T05:20:09.830Z,99.90
2023-03-22T05:22:41.410Z,99.90
2023-03-22T05:25:10.629Z,99.90
2023-03-22T05:27:38.744Z,99.90
2023-03-22T05:30:07.723Z,99.90
2023-03-22T05:32:37.371Z,99.90
2023-03-22T05:35:05.265Z,99.90
2023-03-22T05:37:32.132Z,99.90
2023-03-22T05:39:59.003Z,99.90
2023-03-22T05:42:26.568Z,99.90
2023-03-22T05:44:53.446Z,99.90
2023-03-22T05:47:20.874Z,99.90
2023-03-22T05:49:47.766Z,99.90
2023-03-22T05:52:14.651Z,99.90
2023-03-22T05:54:41.676Z,99.90
2023-03-22T05:57:08.552Z,99.90
2023-03-22T05:59:35.529Z,99.90
2023-03-22T06:02:02.461Z,99.90
2023-03-22T06:04:30.260Z,99.90
2023-03-22T06:06:57.160Z,99.90
2023-03-22T06:09:24.071Z,99.90
2023-03-22T06:11:51.191Z,99.90
2023-03-22T06:14:18.074Z,99.90
2023-03-22T06:16:45.000Z,99.90
2023-03-22T06:19:11.943Z,99.90
2023-03-22T06:21:38.798Z,99.90
2023-03-22T06:24:06.119Z,99.90
2023-03-22T06:26:33.065Z,99.90
2023-03-22T06:29:00.122Z,99.90
2023-03-22T06:31:27.070Z,99.90
2023-03-22T06:33:55.852Z,99.90
2023-03-22T06:36:22.883Z,99.90
2023-03-22T06:38:49.743Z,99.90
2023-03-22T06:41:16.608Z,99.90
2023-03-22T06:43:43.481Z,99.90
2023-03-22T06:46:10.353Z,99.90
2023-03-22T06:48:37.256Z,99.90
2023-03-22T06:51:04.503Z,99.90
2023-03-22T06:53:31.450Z,99.90
2023-03-22T06:55:58.413Z,99.90
2023-03-22T06:58:25.621Z,99.90
2023-03-22T07:00:54.920Z,99.90
2023-03-22T07:03:21.759Z,99.90
2023-03-22T07:05:48.705Z,99.90
2023-03-22T07:08:16.074Z,99.90
2023-03-22T07:10:43.761Z,99.90
2023-03-22T07:13:10.737Z,99.90
2023-03-22T07:15:37.662Z,99.90
2023-03-22T07:18:04.703Z,99.90
2023-03-22T07:20:33.861Z,99.90
2023-03-22T07:23:00.745Z,99.90
2023-03-22T07:25:27.821Z,99.90
2023-03-22T07:27:54.671Z,99.90
2023-03-22T07:30:21.566Z,99.90
2023-03-22T07:32:48.472Z,99.00
2023-03-22T07:35:16.919Z,97.30
2023-03-22T07:37:44.218Z,97.00
2023-03-22T07:40:13.065Z,96.80
2023-03-22T07:42:39.959Z,96.10
2023-03-22T07:45:07.990Z,95.30
2023-03-22T07:47:41.157Z,94.20
2023-03-22T07:50:12.305Z,93.30
2023-03-22T07:52:43.853Z,92.40
2023-03-22T07:55:14.762Z,91.10
2023-03-22T07:57:41.830Z,89.90
2023-03-22T08:00:10.477Z,89.70
2023-03-22T08:02:38.670Z,86.50
2023-03-22T08:05:07.212Z,84.10
2023-03-22T08:07:34.376Z,83.50
2023-03-22T08:10:01.305Z,80.20
2023-03-22T08:12:28.526Z,78.00
2023-03-22T08:14:55.529Z,76.20
2023-03-22T08:17:22.493Z,75.50
2023-03-22T08:19:49.978Z,73.10
2023-03-22T08:22:17.014Z,73.00
2023-03-22T08:24:43.958Z,70.60
2023-03-22T08:27:12.108Z,69.60
2023-03-22T08:29:39.005Z,69.00
2023-03-22T08:32:06.322Z,65.40
2023-03-22T08:34:38.412Z,66.60
2023-03-22T08:37:10.498Z,64.80
2023-03-22T08:39:38.103Z,64.00
2023-03-22T08:42:05.574Z,62.70
2023-03-22T08:44:32.517Z,60.80
2023-03-22T08:47:00.704Z,60.60
2023-03-22T08:49:28.720Z,60.30
2023-03-22T08:51:57.598Z,60.10
2023-03-22T08:54:24.937Z,60.40
2023-03-22T08:56:51.843Z,60.80
2023-03-22T08:59:18.763Z,59.50
2023-03-22T09:03:41.360Z,55.00
2023-03-22T09:06:10.625Z,55.70
2023-03-22T09:08:38.264Z,56.00
2023-03-22T09:11:09.623Z,54.70
2023-03-22T09:13:37.093Z,54.70
2023-03-22T09:16:08.613Z,54.80
2023-03-22T09:18:38.076Z,54.70
2023-03-22T09:21:07.486Z,55.00
2023-03-22T09:23:37.814Z,54.20
2023-03-22T09:26:08.808Z,52.80
2023-03-22T09:28:36.618Z,53.00
2023-03-22T09:31:09.325Z,53.50
2023-03-22T09:33:41.217Z,53.90
2023-03-22T09:36:11.894Z,53.30
2023-03-22T09:38:41.201Z,52.10
2023-03-22T09:41:22.322Z,53.50
2023-03-22T09:43:59.461Z,51.60
2023-03-22T09:46:52.281Z,51.90
2023-03-22T09:49:28.698Z,51.60
2023-03-22T09:51:56.819Z,52.60
2023-03-22T09:54:40.209Z,49.80
2023-03-22T09:57:37.333Z,50.80
2023-03-22T10:00:24.489Z,49.70
2023-03-22T10:03:29.388Z,49.70
2023-03-22T10:06:20.815Z,48.60
2023-03-22T10:09:34.228Z,49.70
2023-03-22T10:12:29.994Z,48.20
2023-03-22T10:15:27.469Z,47.70
2023-03-22T10:17:59.289Z,46.40
2023-03-22T10:20:58.993Z,47.10
2023-03-22T10:23:57.028Z,46.20
2023-03-22T10:26:36.865Z,45.70
2023-03-22T10:29:38.296Z,46.20
2023-03-22T10:32:16.364Z,46.00
2023-03-22T10:34:44.664Z,46.40
2023-03-22T10:37:28.014Z,46.50
2023-03-22T10:39:59.802Z,46.60
2023-03-22T10:42:31.373Z,47.00
2023-03-22T10:45:07.633Z,46.60
2023-03-22T10:48:05.942Z,47.40
2023-03-22T10:50:45.435Z,46.20
2023-03-22T10:53:47.364Z,48.30
2023-03-22T10:56:19.949Z,49.50
2023-03-22T10:58:50.536Z,51.90
2023-03-22T11:01:37.643Z,50.00
2023-03-22T11:04:11.091Z,45.80
2023-03-22T11:06:56.025Z,45.60
2023-03-22T11:09:24.857Z,45.80
2023-03-22T11:11:58.918Z,44.70
2023-03-22T11:14:41.975Z,43.30
2023-03-22T11:17:25.295Z,43.50
2023-03-22T11:20:07.803Z,42.80
2023-03-22T11:22:45.630Z,43.20
2023-03-22T11:25:27.543Z,43.70
2023-03-22T11:28:04.479Z,45.30
2023-03-22T11:30:35.857Z,44.40
2023-03-22T11:33:21.378Z,44.10
2023-03-22T11:35:57.859Z,44.20
2023-03-22T11:38:38.988Z,44.30
2023-03-22T11:41:30.694Z,43.60
2023-03-22T11:44:05.851Z,42.10
2023-03-22T11:46:36.535Z,41.20
2023-03-22T11:49:17.642Z,40.50
2023-03-22T11:51:45.861Z,40.40
2023-03-22T11:54:34.154Z,40.20
2023-03-22T11:57:10.567Z,40.50
2023-03-22T11:59:46.420Z,40.00
2023-03-22T12:02:34.378Z,41.20
2023-03-22T12:05:33.699Z,41.20
2023-03-22T12:08:27.210Z,39.70
2023-03-22T12:11:07.399Z,38.00
2023-03-22T12:13:51.364Z,37.90
2023-03-22T12:16:31.874Z,40.20
2023-03-22T12:19:42.746Z,40.50
2023-03-22T12:22:18.099Z,40.40
2023-03-22T12:24:46.127Z,38.70
2023-03-22T12:27:24.420Z,38.80
2023-03-22T12:30:08.444Z,40.20
2023-03-22T12:32:44.442Z,38.70
2023-03-22T12:35:31.261Z,38.60
2023-03-22T12:38:12.105Z,38.40
2023-03-22T12:40:43.033Z,37.80
2023-03-22T12:43:46.603Z,38.10
2023-03-22T12:46:44.903Z,38.40
2023-03-22T12:49:47.002Z,38.90
2023-03-22T12:52:44.724Z,39.70
2023-03-22T12:55:27.082Z,39.40
2023-03-22T12:57:55.494Z,39.10
2023-03-22T13:00:43.475Z,39.90
2023-03-22T13:03:20.894Z,39.50
2023-03-22T13:06:00.254Z,40.40
2023-03-22T13:09:35.976Z,40.20
2023-03-22T13:12:18.132Z,40.60
2023-03-22T13:14:51.268Z,40.00
2023-03-22T13:17:24.299Z,39.80
2023-03-22T13:20:07.874Z,40.10
2023-03-22T13:22:37.932Z,39.90
2023-03-22T13:25:12.833Z,39.30
2023-03-22T13:27:45.610Z,38.60
2023-03-22T13:30:20.232Z,38.50
2023-03-22T13:33:03.780Z,37.70
2023-03-22T13:35:58.830Z,36.90
2023-03-22T13:38:42.199Z,38.30
2023-03-22T13:41:28.245Z,39.30
2023-03-22T13:43:59.839Z,39.60
2023-03-22T13:46:45.533Z,40.20
2023-03-22T13:49:51.197Z,39.80
2023-03-22T13:52:35.755Z,36.90
2023-03-22T13:55:04.449Z,38.40
2023-03-22T13:58:36.282Z,40.10
2023-03-22T14:01:15.944Z,39.90
2023-03-22T14:03:49.241Z,40.90
2023-03-22T14:06:28.657Z,42.10
2023-03-22T14:09:14.958Z,41.80
2023-03-22T14:12:19.859Z,40.40
2023-03-22T14:14:56.933Z,38.70
2023-03-22T14:17:52.547Z,38.90
2023-03-22T14:20:25.298Z,38.60
